This is the latest recevied weather packets stored in our database for station/object GW1699. If no packets are shown the sender has not sent any weather packets the latest 10 day(s).
| Time | Temp. | Humidity | Pressure | Rain* | Wind** | Luminosity | Snow |
|---|---|---|---|---|---|---|---|
| 1777500023 | 16.11° C | 98% | 1006 hPa | 19.3 mm | - | - | - |
| 1777497889 | 15.56° C | 98% | 1006 hPa | 19.3 mm | - | - | - |
| 1777492106 | 16.67° C | 99% | 1005.4 hPa | 13.46 mm | - | - | - |
| 1777491380 | 16.67° C | 99% | 1005.4 hPa | 13.21 mm | - | - | - |
| 1777485267 | 18.89° C | 91% | 1006.4 hPa | 10.16 mm | - | - | - |
| 1777481668 | 18.89° C | 92% | 1007.7 hPa | 10.16 mm | - | - | - |
| 1777480578 | 18.89° C | 90% | 1007.7 hPa | 10.16 mm | - | - | - |
| 1777480229 | 18.89° C | 92% | 1007.7 hPa | 10.16 mm | - | - | - |
| 1777477711 | 17.78° C | 97% | 1008.8 hPa | 10.16 mm | - | - | - |
| 1777476262 | 17.78° C | 96% | 1008.8 hPa | 10.16 mm | - | - | - |
| 1777475927 | 17.78° C | 97% | 1008.8 hPa | 10.16 mm | - | - | - |
| 1777474460 | 16.67° C | 99% | 1008.8 hPa | 10.16 mm | - | - | - |
| 1777469809 | 16.11° C | 99% | 1009.8 hPa | 10.16 mm | - | - | - |
| 1777469074 | 16.11° C | 99% | 1009.8 hPa | 10.16 mm | - | - | - |
| 1777467288 | 15.56° C | 99% | 1010.1 hPa | 10.16 mm | - | - | - |
| 1777466905 | 15° C | 99% | 1010.1 hPa | 10.16 mm | - | - | - |
| 1777465467 | 15° C | 99% | 1009.8 hPa | 7.87 mm | - | - | - |
| 1777464764 | 14.44° C | 99% | 1009.4 hPa | 1.02 mm | - | - | - |
| 1777464393 | 14.44° C | 99% | 1009.1 hPa | 0 mm | - | - | - |
| 1777462580 | 13.89° C | 99% | 1008.8 hPa | 0 mm | - | - | - |
| 1777453241 | 13.33° C | 99% | 1010.4 hPa | 0 mm | - | - | - |
| 1777452889 | 13.33° C | 99% | 1010.4 hPa | 0 mm | - | - | - |
| 1777452153 | 13.33° C | 99% | 1010.1 hPa | 0 mm | - | - | - |
| 1777448568 | 13.89° C | 99% | 1010.4 hPa | 0 mm | - | - | - |
| 1777448179 | 13.89° C | 99% | 1010.8 hPa | 0 mm | - | - | - |
* Rain since midnight (hover to see other rain measurements)
** Current wind speed in m/s (hover to see current wind gust speed)